sensor_id;sensor_type;location;lat;lon;timestamp;P1;durP1;ratioP1;P2;durP2;ratioP2
19521;SDS011;9905;52.126;5.596;2024-03-08T00:01:35;30.25;;;18.52;;
19521;SDS011;9905;52.126;5.596;2024-03-08T00:04:02;27.75;;;20.02;;
19521;SDS011;9905;52.126;5.596;2024-03-08T00:06:29;25.83;;;19.17;;
19521;SDS011;9905;52.126;5.596;2024-03-08T00:08:55;29.70;;;18.60;;
19521;SDS011;9905;52.126;5.596;2024-03-08T00:11:22;26.38;;;18.75;;
19521;SDS011;9905;52.126;5.596;2024-03-08T00:13:52;25.88;;;17.88;;
19521;SDS011;9905;52.126;5.596;2024-03-08T00:16:19;31.80;;;18.58;;
19521;SDS011;9905;52.126;5.596;2024-03-08T00:18:48;28.77;;;19.65;;
19521;SDS011;9905;52.126;5.596;2024-03-08T00:21:15;29.27;;;17.80;;
19521;SDS011;9905;52.126;5.596;2024-03-08T00:23:41;24.90;;;18.67;;
19521;SDS011;9905;52.126;5.596;2024-03-08T00:26:08;27.17;;;18.33;;
19521;SDS011;9905;52.126;5.596;2024-03-08T00:28:35;27.73;;;18.55;;
19521;SDS011;9905;52.126;5.596;2024-03-08T00:31:03;35.33;;;18.67;;
19521;SDS011;9905;52.126;5.596;2024-03-08T00:33:32;27.08;;;19.90;;
19521;SDS011;9905;52.126;5.596;2024-03-08T00:35:58;24.27;;;18.35;;
19521;SDS011;9905;52.126;5.596;2024-03-08T00:38:25;30.15;;;18.38;;
19521;SDS011;9905;52.126;5.596;2024-03-08T00:40:52;28.00;;;18.40;;
19521;SDS011;9905;52.126;5.596;2024-03-08T00:43:19;31.40;;;19.35;;
19521;SDS011;9905;52.126;5.596;2024-03-08T00:45:45;26.23;;;19.25;;
19521;SDS011;9905;52.126;5.596;2024-03-08T00:48:13;27.20;;;18.77;;
19521;SDS011;9905;52.126;5.596;2024-03-08T00:50:40;28.02;;;20.60;;
19521;SDS011;9905;52.126;5.596;2024-03-08T00:53:07;26.35;;;18.58;;
19521;SDS011;9905;52.126;5.596;2024-03-08T00:55:36;26.58;;;18.52;;
19521;SDS011;9905;52.126;5.596;2024-03-08T00:58:03;29.65;;;18.92;;
19521;SDS011;9905;52.126;5.596;2024-03-08T01:00:30;27.73;;;19.67;;
19521;SDS011;9905;52.126;5.596;2024-03-08T01:02:56;26.80;;;19.95;;
19521;SDS011;9905;52.126;5.596;2024-03-08T01:05:25;29.40;;;19.10;;
19521;SDS011;9905;52.126;5.596;2024-03-08T01:07:51;25.42;;;19.08;;
19521;SDS011;9905;52.126;5.596;2024-03-08T01:10:18;31.60;;;18.40;;
19521;SDS011;9905;52.126;5.596;2024-03-08T01:12:45;30.80;;;20.13;;
19521;SDS011;9905;52.126;5.596;2024-03-08T01:15:12;28.92;;;18.83;;
19521;SDS011;9905;52.126;5.596;2024-03-08T01:17:38;30.13;;;20.67;;
19521;SDS011;9905;52.126;5.596;2024-03-08T01:20:06;29.20;;;18.85;;
19521;SDS011;9905;52.126;5.596;2024-03-08T01:22:37;27.85;;;18.58;;
19521;SDS011;9905;52.126;5.596;2024-03-08T01:25:04;29.90;;;20.08;;
19521;SDS011;9905;52.126;5.596;2024-03-08T01:27:31;26.80;;;19.70;;
19521;SDS011;9905;52.126;5.596;2024-03-08T01:30:02;25.58;;;19.85;;
19521;SDS011;9905;52.126;5.596;2024-03-08T01:32:29;29.63;;;19.63;;
19521;SDS011;9905;52.126;5.596;2024-03-08T01:34:56;22.90;;;18.73;;
19521;SDS011;9905;52.126;5.596;2024-03-08T01:37:23;25.88;;;19.77;;
19521;SDS011;9905;52.126;5.596;2024-03-08T01:39:51;28.38;;;20.02;;
19521;SDS011;9905;52.126;5.596;2024-03-08T01:42:18;25.97;;;19.07;;
19521;SDS011;9905;52.126;5.596;2024-03-08T01:44:44;30.15;;;19.20;;
19521;SDS011;9905;52.126;5.596;2024-03-08T01:47:11;27.90;;;19.55;;
19521;SDS011;9905;52.126;5.596;2024-03-08T01:49:38;28.60;;;18.80;;
19521;SDS011;9905;52.126;5.596;2024-03-08T01:52:05;29.38;;;19.63;;
19521;SDS011;9905;52.126;5.596;2024-03-08T01:54:32;27.95;;;18.75;;
19521;SDS011;9905;52.126;5.596;2024-03-08T01:57:02;30.13;;;19.33;;
19521;SDS011;9905;52.126;5.596;2024-03-08T01:59:29;28.88;;;19.35;;
19521;SDS011;9905;52.126;5.596;2024-03-08T02:01:56;29.90;;;20.00;;
19521;SDS011;9905;52.126;5.596;2024-03-08T02:04:28;26.27;;;17.70;;
19521;SDS011;9905;52.126;5.596;2024-03-08T02:06:55;26.58;;;19.83;;
19521;SDS011;9905;52.126;5.596;2024-03-08T02:09:23;24.48;;;19.50;;
19521;SDS011;9905;52.126;5.596;2024-03-08T02:11:50;26.00;;;18.48;;
19521;SDS011;9905;52.126;5.596;2024-03-08T02:14:21;24.92;;;18.20;;
19521;SDS011;9905;52.126;5.596;2024-03-08T02:16:48;27.33;;;20.65;;
19521;SDS011;9905;52.126;5.596;2024-03-08T02:19:16;26.85;;;18.88;;
19521;SDS011;9905;52.126;5.596;2024-03-08T02:21:44;25.17;;;19.02;;
19521;SDS011;9905;52.126;5.596;2024-03-08T02:24:12;28.47;;;19.33;;
19521;SDS011;9905;52.126;5.596;2024-03-08T02:26:39;23.85;;;19.33;;
19521;SDS011;9905;52.126;5.596;2024-03-08T02:29:07;29.52;;;19.52;;
19521;SDS011;9905;52.126;5.596;2024-03-08T02:31:34;28.67;;;19.20;;
19521;SDS011;9905;52.126;5.596;2024-03-08T02:34:01;22.92;;;18.45;;
19521;SDS011;9905;52.126;5.596;2024-03-08T02:36:28;30.15;;;19.52;;
19521;SDS011;9905;52.126;5.596;2024-03-08T02:38:56;27.77;;;19.90;;
19521;SDS011;9905;52.126;5.596;2024-03-08T02:41:23;25.57;;;19.03;;
19521;SDS011;9905;52.126;5.596;2024-03-08T02:43:50;25.77;;;19.77;;
19521;SDS011;9905;52.126;5.596;2024-03-08T02:46:16;26.57;;;19.80;;
19521;SDS011;9905;52.126;5.596;2024-03-08T02:48:43;29.98;;;18.77;;
19521;SDS011;9905;52.126;5.596;2024-03-08T02:51:10;27.13;;;18.73;;
19521;SDS011;9905;52.126;5.596;2024-03-08T02:53:36;26.80;;;18.85;;
19521;SDS011;9905;52.126;5.596;2024-03-08T02:56:05;28.87;;;19.43;;
19521;SDS011;9905;52.126;5.596;2024-03-08T02:58:33;27.55;;;19.13;;
19521;SDS011;9905;52.126;5.596;2024-03-08T03:01:00;27.05;;;19.40;;
19521;SDS011;9905;52.126;5.596;2024-03-08T03:03:27;28.17;;;19.95;;
19521;SDS011;9905;52.126;5.596;2024-03-08T03:05:54;27.30;;;19.83;;
19521;SDS011;9905;52.126;5.596;2024-03-08T03:08:21;29.43;;;19.93;;
19521;SDS011;9905;52.126;5.596;2024-03-08T03:10:48;26.98;;;18.65;;
19521;SDS011;9905;52.126;5.596;2024-03-08T03:13:17;27.27;;;18.70;;
19521;SDS011;9905;52.126;5.596;2024-03-08T03:15:45;26.03;;;19.73;;
19521;SDS011;9905;52.126;5.596;2024-03-08T03:18:12;27.77;;;19.85;;
19521;SDS011;9905;52.126;5.596;2024-03-08T03:20:40;26.73;;;19.47;;
19521;SDS011;9905;52.126;5.596;2024-03-08T03:23:07;24.20;;;19.38;;
19521;SDS011;9905;52.126;5.596;2024-03-08T03:25:38;23.80;;;18.30;;
19521;SDS011;9905;52.126;5.596;2024-03-08T03:28:06;28.17;;;20.90;;
19521;SDS011;9905;52.126;5.596;2024-03-08T03:30:37;26.40;;;19.07;;
19521;SDS011;9905;52.126;5.596;2024-03-08T03:33:04;33.30;;;21.00;;
19521;SDS011;9905;52.126;5.596;2024-03-08T03:35:31;29.13;;;20.25;;
19521;SDS011;9905;52.126;5.596;2024-03-08T03:37:59;26.23;;;21.27;;
19521;SDS011;9905;52.126;5.596;2024-03-08T03:40:31;25.67;;;19.23;;
19521;SDS011;9905;52.126;5.596;2024-03-08T03:42:58;27.67;;;21.33;;
19521;SDS011;9905;52.126;5.596;2024-03-08T03:45:25;27.67;;;20.77;;
19521;SDS011;9905;52.126;5.596;2024-03-08T03:47:53;23.48;;;19.27;;
19521;SDS011;9905;52.126;5.596;2024-03-08T03:50:20;27.13;;;20.00;;
19521;SDS011;9905;52.126;5.596;2024-03-08T03:52:48;26.77;;;20.38;;
19521;SDS011;9905;52.126;5.596;2024-03-08T03:55:15;30.00;;;21.00;;
19521;SDS011;9905;52.126;5.596;2024-03-08T03:57:42;22.60;;;19.50;;
19521;SDS011;9905;52.126;5.596;2024-03-08T04:00:11;28.57;;;20.00;;
19521;SDS011;9905;52.126;5.596;2024-03-08T04:02:38;33.57;;;21.43;;
19521;SDS011;9905;52.126;5.596;2024-03-08T04:05:08;28.13;;;19.80;;
19521;SDS011;9905;52.126;5.596;2024-03-08T04:07:35;27.50;;;19.83;;
19521;SDS011;9905;52.126;5.596;2024-03-08T04:10:02;28.17;;;21.20;;
19521;SDS011;9905;52.126;5.596;2024-03-08T04:12:31;32.13;;;20.97;;
19521;SDS011;9905;52.126;5.596;2024-03-08T04:14:58;29.97;;;20.53;;
19521;SDS011;9905;52.126;5.596;2024-03-08T04:17:24;26.20;;;20.53;;
19521;SDS011;9905;52.126;5.596;2024-03-08T04:19:51;27.87;;;20.03;;
19521;SDS011;9905;52.126;5.596;2024-03-08T04:22:20;27.77;;;21.23;;
19521;SDS011;9905;52.126;5.596;2024-03-08T04:24:46;25.57;;;20.87;;
19521;SDS011;9905;52.126;5.596;2024-03-08T04:27:13;27.75;;;21.17;;
19521;SDS011;9905;52.126;5.596;2024-03-08T04:29:40;28.73;;;20.80;;
19521;SDS011;9905;52.126;5.596;2024-03-08T04:32:07;25.67;;;20.17;;
19521;SDS011;9905;52.126;5.596;2024-03-08T04:34:34;25.97;;;20.07;;
19521;SDS011;9905;52.126;5.596;2024-03-08T04:37:01;27.70;;;20.52;;
19521;SDS011;9905;52.126;5.596;2024-03-08T04:39:31;29.67;;;21.60;;
19521;SDS011;9905;52.126;5.596;2024-03-08T04:41:58;28.77;;;20.57;;
19521;SDS011;9905;52.126;5.596;2024-03-08T04:44:28;27.33;;;21.03;;
19521;SDS011;9905;52.126;5.596;2024-03-08T04:46:56;26.87;;;20.17;;
19521;SDS011;9905;52.126;5.596;2024-03-08T04:49:23;27.90;;;21.03;;
19521;SDS011;9905;52.126;5.596;2024-03-08T04:51:50;29.17;;;21.03;;
19521;SDS011;9905;52.126;5.596;2024-03-08T04:54:16;30.23;;;21.67;;
19521;SDS011;9905;52.126;5.596;2024-03-08T04:56:45;24.83;;;20.10;;
19521;SDS011;9905;52.126;5.596;2024-03-08T04:59:12;29.87;;;21.70;;
19521;SDS011;9905;52.126;5.596;2024-03-08T05:01:39;28.67;;;20.57;;
19521;SDS011;9905;52.126;5.596;2024-03-08T05:04:05;27.57;;;21.20;;
19521;SDS011;9905;52.126;5.596;2024-03-08T05:06:32;29.47;;;21.33;;
19521;SDS011;9905;52.126;5.596;2024-03-08T05:08:59;31.03;;;21.57;;
19521;SDS011;9905;52.126;5.596;2024-03-08T05:11:25;30.53;;;21.73;;
19521;SDS011;9905;52.126;5.596;2024-03-08T05:13:54;30.67;;;20.33;;
19521;SDS011;9905;52.126;5.596;2024-03-08T05:16:20;27.43;;;20.77;;
19521;SDS011;9905;52.126;5.596;2024-03-08T05:18:49;28.27;;;22.40;;
19521;SDS011;9905;52.126;5.596;2024-03-08T05:21:16;29.27;;;20.47;;
19521;SDS011;9905;52.126;5.596;2024-03-08T05:23:45;29.43;;;22.30;;
19521;SDS011;9905;52.126;5.596;2024-03-08T05:26:12;28.67;;;22.07;;
19521;SDS011;9905;52.126;5.596;2024-03-08T05:28:40;31.50;;;21.50;;
19521;SDS011;9905;52.126;5.596;2024-03-08T05:31:08;29.47;;;20.77;;
19521;SDS011;9905;52.126;5.596;2024-03-08T05:33:34;28.20;;;21.10;;
19521;SDS011;9905;52.126;5.596;2024-03-08T05:36:01;27.87;;;21.10;;
19521;SDS011;9905;52.126;5.596;2024-03-08T05:38:28;27.03;;;21.20;;
19521;SDS011;9905;52.126;5.596;2024-03-08T05:40:55;29.77;;;20.87;;
19521;SDS011;9905;52.126;5.596;2024-03-08T05:43:22;30.83;;;21.10;;
19521;SDS011;9905;52.126;5.596;2024-03-08T05:45:49;28.90;;;22.27;;
19521;SDS011;9905;52.126;5.596;2024-03-08T05:48:18;30.63;;;21.17;;
19521;SDS011;9905;52.126;5.596;2024-03-08T05:50:44;31.80;;;22.33;;
19521;SDS011;9905;52.126;5.596;2024-03-08T05:53:11;31.73;;;21.90;;
19521;SDS011;9905;52.126;5.596;2024-03-08T05:55:38;28.67;;;20.50;;
19521;SDS011;9905;52.126;5.596;2024-03-08T05:58:05;27.67;;;21.33;;
19521;SDS011;9905;52.126;5.596;2024-03-08T06:00:33;27.70;;;21.43;;
19521;SDS011;9905;52.126;5.596;2024-03-08T06:03:01;30.30;;;21.17;;
19521;SDS011;9905;52.126;5.596;2024-03-08T06:05:29;26.47;;;21.53;;
19521;SDS011;9905;52.126;5.596;2024-03-08T06:07:56;27.13;;;20.93;;
19521;SDS011;9905;52.126;5.596;2024-03-08T06:10:23;30.27;;;21.40;;
19521;SDS011;9905;52.126;5.596;2024-03-08T06:12:49;28.97;;;21.50;;
19521;SDS011;9905;52.126;5.596;2024-03-08T06:15:16;32.30;;;22.17;;
19521;SDS011;9905;52.126;5.596;2024-03-08T06:17:45;26.67;;;21.30;;
19521;SDS011;9905;52.126;5.596;2024-03-08T06:20:12;30.90;;;21.97;;
19521;SDS011;9905;52.126;5.596;2024-03-08T06:22:41;27.83;;;21.40;;
19521;SDS011;9905;52.126;5.596;2024-03-08T06:25:10;28.83;;;21.08;;
19521;SDS011;9905;52.126;5.596;2024-03-08T06:27:38;28.20;;;21.27;;
19521;SDS011;9905;52.126;5.596;2024-03-08T06:30:06;30.50;;;22.37;;
19521;SDS011;9905;52.126;5.596;2024-03-08T06:32:34;26.67;;;21.77;;
19521;SDS011;9905;52.126;5.596;2024-03-08T06:35:02;30.23;;;22.10;;
19521;SDS011;9905;52.126;5.596;2024-03-08T06:37:31;31.87;;;22.13;;
19521;SDS011;9905;52.126;5.596;2024-03-08T06:39:59;27.43;;;22.53;;
19521;SDS011;9905;52.126;5.596;2024-03-08T06:42:26;29.43;;;22.93;;
19521;SDS011;9905;52.126;5.596;2024-03-08T06:44:54;33.33;;;22.03;;
19521;SDS011;9905;52.126;5.596;2024-03-08T06:47:28;30.40;;;22.13;;
19521;SDS011;9905;52.126;5.596;2024-03-08T06:49:55;32.20;;;23.17;;
19521;SDS011;9905;52.126;5.596;2024-03-08T06:52:21;28.63;;;21.87;;
19521;SDS011;9905;52.126;5.596;2024-03-08T06:54:48;33.03;;;23.17;;
19521;SDS011;9905;52.126;5.596;2024-03-08T06:57:18;32.50;;;22.77;;
19521;SDS011;9905;52.126;5.596;2024-03-08T06:59:46;32.27;;;23.27;;
19521;SDS011;9905;52.126;5.596;2024-03-08T07:02:13;31.67;;;22.63;;
19521;SDS011;9905;52.126;5.596;2024-03-08T07:04:40;29.50;;;21.83;;
19521;SDS011;9905;52.126;5.596;2024-03-08T07:07:07;30.40;;;22.87;;
19521;SDS011;9905;52.126;5.596;2024-03-08T07:09:34;30.97;;;22.50;;
19521;SDS011;9905;52.126;5.596;2024-03-08T07:12:01;31.47;;;22.40;;
19521;SDS011;9905;52.126;5.596;2024-03-08T07:14:30;35.03;;;22.70;;
19521;SDS011;9905;52.126;5.596;2024-03-08T07:16:57;30.37;;;23.23;;
19521;SDS011;9905;52.126;5.596;2024-03-08T07:19:23;36.00;;;24.63;;
19521;SDS011;9905;52.126;5.596;2024-03-08T07:21:50;32.13;;;23.07;;
19521;SDS011;9905;52.126;5.596;2024-03-08T07:24:17;32.83;;;22.57;;
19521;SDS011;9905;52.126;5.596;2024-03-08T07:27:04;31.47;;;23.10;;
19521;SDS011;9905;52.126;5.596;2024-03-08T07:29:32;31.83;;;23.13;;
19521;SDS011;9905;52.126;5.596;2024-03-08T07:32:00;32.20;;;22.87;;
19521;SDS011;9905;52.126;5.596;2024-03-08T07:34:37;29.40;;;23.53;;
19521;SDS011;9905;52.126;5.596;2024-03-08T07:37:05;33.70;;;23.48;;
19521;SDS011;9905;52.126;5.596;2024-03-08T07:39:32;29.48;;;24.25;;
19521;SDS011;9905;52.126;5.596;2024-03-08T07:41:59;32.60;;;23.55;;
19521;SDS011;9905;52.126;5.596;2024-03-08T07:44:25;35.28;;;23.92;;
19521;SDS011;9905;52.126;5.596;2024-03-08T07:46:54;33.37;;;23.17;;
19521;SDS011;9905;52.126;5.596;2024-03-08T07:49:21;29.67;;;22.63;;
19521;SDS011;9905;52.126;5.596;2024-03-08T07:51:47;33.17;;;23.17;;
19521;SDS011;9905;52.126;5.596;2024-03-08T07:54:15;35.23;;;24.17;;
19521;SDS011;9905;52.126;5.596;2024-03-08T07:56:41;33.40;;;22.63;;
19521;SDS011;9905;52.126;5.596;2024-03-08T07:59:08;33.90;;;23.73;;
19521;SDS011;9905;52.126;5.596;2024-03-08T08:01:36;30.63;;;22.60;;
19521;SDS011;9905;52.126;5.596;2024-03-08T08:04:05;31.57;;;23.23;;
19521;SDS011;9905;52.126;5.596;2024-03-08T08:06:32;32.47;;;23.50;;
19521;SDS011;9905;52.126;5.596;2024-03-08T08:08:59;30.50;;;22.80;;
19521;SDS011;9905;52.126;5.596;2024-03-08T08:11:26;33.90;;;23.35;;
19521;SDS011;9905;52.126;5.596;2024-03-08T08:13:53;29.80;;;22.85;;
19521;SDS011;9905;52.126;5.596;2024-03-08T08:16:22;29.48;;;21.27;;
19521;SDS011;9905;52.126;5.596;2024-03-08T08:18:50;32.97;;;22.42;;
19521;SDS011;9905;52.126;5.596;2024-03-08T08:21:19;31.23;;;22.98;;
19521;SDS011;9905;52.126;5.596;2024-03-08T08:23:47;29.90;;;22.88;;
19521;SDS011;9905;52.126;5.596;2024-03-08T08:26:13;31.05;;;22.88;;
19521;SDS011;9905;52.126;5.596;2024-03-08T08:28:40;32.13;;;22.70;;
19521;SDS011;9905;52.126;5.596;2024-03-08T08:31:08;30.38;;;21.75;;
19521;SDS011;9905;52.126;5.596;2024-03-08T08:33:35;30.17;;;21.35;;
19521;SDS011;9905;52.126;5.596;2024-03-08T08:36:01;28.27;;;22.15;;
19521;SDS011;9905;52.126;5.596;2024-03-08T08:38:30;35.80;;;23.88;;
19521;SDS011;9905;52.126;5.596;2024-03-08T08:40:57;31.50;;;21.65;;
19521;SDS011;9905;52.126;5.596;2024-03-08T08:43:24;26.50;;;21.05;;
19521;SDS011;9905;52.126;5.596;2024-03-08T08:45:51;29.70;;;21.45;;
19521;SDS011;9905;52.126;5.596;2024-03-08T08:48:19;25.77;;;20.63;;
19521;SDS011;9905;52.126;5.596;2024-03-08T08:50:46;30.42;;;23.10;;
19521;SDS011;9905;52.126;5.596;2024-03-08T08:53:13;29.33;;;21.10;;
19521;SDS011;9905;52.126;5.596;2024-03-08T08:55:41;27.35;;;20.00;;
19521;SDS011;9905;52.126;5.596;2024-03-08T08:58:08;26.27;;;20.65;;
19521;SDS011;9905;52.126;5.596;2024-03-08T09:00:36;26.80;;;20.33;;
19521;SDS011;9905;52.126;5.596;2024-03-08T09:03:03;29.98;;;22.13;;
19521;SDS011;9905;52.126;5.596;2024-03-08T09:05:31;31.40;;;21.67;;
19521;SDS011;9905;52.126;5.596;2024-03-08T09:07:58;28.55;;;22.15;;
19521;SDS011;9905;52.126;5.596;2024-03-08T09:10:25;28.02;;;20.10;;
19521;SDS011;9905;52.126;5.596;2024-03-08T09:12:54;27.58;;;20.10;;
19521;SDS011;9905;52.126;5.596;2024-03-08T09:15:20;29.90;;;21.25;;
19521;SDS011;9905;52.126;5.596;2024-03-08T09:17:47;30.70;;;21.65;;
19521;SDS011;9905;52.126;5.596;2024-03-08T09:20:14;27.40;;;20.42;;
19521;SDS011;9905;52.126;5.596;2024-03-08T09:22:43;26.48;;;20.48;;
19521;SDS011;9905;52.126;5.596;2024-03-08T09:25:10;26.00;;;20.42;;
19521;SDS011;9905;52.126;5.596;2024-03-08T09:27:36;26.77;;;20.50;;
19521;SDS011;9905;52.126;5.596;2024-03-08T09:30:06;25.15;;;20.10;;
19521;SDS011;9905;52.126;5.596;2024-03-08T09:32:34;27.52;;;20.05;;
19521;SDS011;9905;52.126;5.596;2024-03-08T09:35:01;28.52;;;19.88;;
19521;SDS011;9905;52.126;5.596;2024-03-08T09:37:31;26.02;;;19.13;;
19521;SDS011;9905;52.126;5.596;2024-03-08T09:39:59;26.27;;;18.80;;
19521;SDS011;9905;52.126;5.596;2024-03-08T09:42:29;24.52;;;19.30;;
19521;SDS011;9905;52.126;5.596;2024-03-08T09:44:56;26.10;;;18.95;;
19521;SDS011;9905;52.126;5.596;2024-03-08T09:47:25;27.83;;;18.95;;
19521;SDS011;9905;52.126;5.596;2024-03-08T09:49:58;27.40;;;18.73;;
19521;SDS011;9905;52.126;5.596;2024-03-08T09:52:26;27.15;;;19.55;;
19521;SDS011;9905;52.126;5.596;2024-03-08T09:54:55;25.55;;;19.77;;
19521;SDS011;9905;52.126;5.596;2024-03-08T09:57:22;31.83;;;20.08;;
19521;SDS011;9905;52.126;5.596;2024-03-08T09:59:51;26.88;;;18.65;;
19521;SDS011;9905;52.126;5.596;2024-03-08T10:02:18;24.77;;;18.15;;
19521;SDS011;9905;52.126;5.596;2024-03-08T10:04:47;27.33;;;18.60;;
19521;SDS011;9905;52.126;5.596;2024-03-08T10:07:14;22.30;;;17.67;;
19521;SDS011;9905;52.126;5.596;2024-03-08T10:09:40;22.17;;;18.75;;
19521;SDS011;9905;52.126;5.596;2024-03-08T10:12:12;23.63;;;18.20;;
19521;SDS011;9905;52.126;5.596;2024-03-08T10:14:39;22.80;;;18.23;;
19521;SDS011;9905;52.126;5.596;2024-03-08T10:17:07;23.45;;;16.90;;
19521;SDS011;9905;52.126;5.596;2024-03-08T10:19:34;27.77;;;18.63;;
19521;SDS011;9905;52.126;5.596;2024-03-08T10:22:02;21.42;;;18.02;;
19521;SDS011;9905;52.126;5.596;2024-03-08T10:24:29;22.70;;;17.98;;
19521;SDS011;9905;52.126;5.596;2024-03-08T10:26:59;23.67;;;18.20;;
19521;SDS011;9905;52.126;5.596;2024-03-08T10:29:26;25.05;;;18.23;;
19521;SDS011;9905;52.126;5.596;2024-03-08T10:31:53;24.10;;;18.13;;
19521;SDS011;9905;52.126;5.596;2024-03-08T10:34:21;22.83;;;17.98;;
19521;SDS011;9905;52.126;5.596;2024-03-08T10:36:48;23.20;;;17.35;;
19521;SDS011;9905;52.126;5.596;2024-03-08T10:39:21;20.85;;;17.75;;
19521;SDS011;9905;52.126;5.596;2024-03-08T10:41:50;21.25;;;17.42;;
19521;SDS011;9905;52.126;5.596;2024-03-08T10:44:24;21.55;;;16.67;;
19521;SDS011;9905;52.126;5.596;2024-03-08T10:47:03;20.90;;;16.50;;
19521;SDS011;9905;52.126;5.596;2024-03-08T10:49:43;23.20;;;17.02;;
19521;SDS011;9905;52.126;5.596;2024-03-08T10:52:17;19.23;;;16.95;;
19521;SDS011;9905;52.126;5.596;2024-03-08T10:54:47;21.10;;;16.80;;
19521;SDS011;9905;52.126;5.596;2024-03-08T10:57:14;17.73;;;15.95;;
19521;SDS011;9905;52.126;5.596;2024-03-08T10:59:44;22.30;;;16.33;;
19521;SDS011;9905;52.126;5.596;2024-03-08T11:02:14;18.35;;;16.02;;
19521;SDS011;9905;52.126;5.596;2024-03-08T11:04:45;17.60;;;15.88;;
19521;SDS011;9905;52.126;5.596;2024-03-08T11:07:14;19.35;;;16.30;;
19521;SDS011;9905;52.126;5.596;2024-03-08T11:09:44;18.48;;;15.70;;
19521;SDS011;9905;52.126;5.596;2024-03-08T11:12:24;18.20;;;15.77;;
19521;SDS011;9905;52.126;5.596;2024-03-08T11:14:54;17.67;;;14.35;;
19521;SDS011;9905;52.126;5.596;2024-03-08T11:17:25;17.30;;;15.50;;
19521;SDS011;9905;52.126;5.596;2024-03-08T11:20:07;16.40;;;14.02;;
19521;SDS011;9905;52.126;5.596;2024-03-08T11:22:40;19.63;;;15.82;;
19521;SDS011;9905;52.126;5.596;2024-03-08T11:25:29;18.48;;;15.27;;
19521;SDS011;9905;52.126;5.596;2024-03-08T11:28:07;16.75;;;13.38;;
19521;SDS011;9905;52.126;5.596;2024-03-08T11:30:41;18.10;;;14.38;;
19521;SDS011;9905;52.126;5.596;2024-03-08T11:33:10;16.85;;;14.23;;
19521;SDS011;9905;52.126;5.596;2024-03-08T11:35:38;20.73;;;14.38;;
19521;SDS011;9905;52.126;5.596;2024-03-08T11:38:05;17.65;;;13.73;;
19521;SDS011;9905;52.126;5.596;2024-03-08T11:40:35;15.15;;;12.73;;
19521;SDS011;9905;52.126;5.596;2024-03-08T11:43:02;15.88;;;13.20;;
19521;SDS011;9905;52.126;5.596;2024-03-08T11:45:32;16.08;;;13.35;;
19521;SDS011;9905;52.126;5.596;2024-03-08T11:48:01;18.35;;;13.68;;
19521;SDS011;9905;52.126;5.596;2024-03-08T11:50:30;16.48;;;13.75;;
19521;SDS011;9905;52.126;5.596;2024-03-08T11:53:01;20.60;;;14.63;;
19521;SDS011;9905;52.126;5.596;2024-03-08T11:55:29;14.93;;;13.13;;
19521;SDS011;9905;52.126;5.596;2024-03-08T11:58:01;18.35;;;13.52;;
19521;SDS011;9905;52.126;5.596;2024-03-08T12:00:29;15.88;;;13.93;;
19521;SDS011;9905;52.126;5.596;2024-03-08T12:03:06;19.95;;;13.65;;
19521;SDS011;9905;52.126;5.596;2024-03-08T12:05:34;15.13;;;13.43;;
19521;SDS011;9905;52.126;5.596;2024-03-08T12:08:03;14.45;;;12.93;;
19521;SDS011;9905;52.126;5.596;2024-03-08T12:10:31;16.20;;;11.95;;
19521;SDS011;9905;52.126;5.596;2024-03-08T12:13:01;15.57;;;12.77;;
19521;SDS011;9905;52.126;5.596;2024-03-08T12:15:29;15.82;;;12.77;;
19521;SDS011;9905;52.126;5.596;2024-03-08T12:17:58;15.07;;;12.23;;
19521;SDS011;9905;52.126;5.596;2024-03-08T12:20:26;13.65;;;11.60;;
19521;SDS011;9905;52.126;5.596;2024-03-08T12:22:55;13.77;;;11.70;;
19521;SDS011;9905;52.126;5.596;2024-03-08T12:25:25;13.25;;;10.98;;
19521;SDS011;9905;52.126;5.596;2024-03-08T12:27:52;13.60;;;12.20;;
19521;SDS011;9905;52.126;5.596;2024-03-08T12:30:24;14.05;;;11.93;;
19521;SDS011;9905;52.126;5.596;2024-03-08T12:32:53;13.98;;;12.63;;
19521;SDS011;9905;52.126;5.596;2024-03-08T12:35:21;15.00;;;11.75;;
19521;SDS011;9905;52.126;5.596;2024-03-08T12:37:50;14.52;;;12.20;;
19521;SDS011;9905;52.126;5.596;2024-03-08T12:40:18;14.65;;;12.93;;
19521;SDS011;9905;52.126;5.596;2024-03-08T12:42:46;16.83;;;12.75;;
19521;SDS011;9905;52.126;5.596;2024-03-08T12:45:13;15.23;;;13.60;;
19521;SDS011;9905;52.126;5.596;2024-03-08T12:47:42;17.77;;;13.75;;
19521;SDS011;9905;52.126;5.596;2024-03-08T12:50:09;16.67;;;13.82;;
19521;SDS011;9905;52.126;5.596;2024-03-08T12:52:36;16.23;;;13.20;;
19521;SDS011;9905;52.126;5.596;2024-03-08T12:55:03;14.73;;;13.05;;
19521;SDS011;9905;52.126;5.596;2024-03-08T12:57:32;17.50;;;13.52;;
19521;SDS011;9905;52.126;5.596;2024-03-08T13:00:00;14.98;;;13.38;;
19521;SDS011;9905;52.126;5.596;2024-03-08T13:02:28;14.90;;;13.05;;
19521;SDS011;9905;52.126;5.596;2024-03-08T13:04:57;18.77;;;14.23;;
19521;SDS011;9905;52.126;5.596;2024-03-08T13:07:25;20.80;;;14.10;;
19521;SDS011;9905;52.126;5.596;2024-03-08T13:09:52;17.50;;;13.90;;
19521;SDS011;9905;52.126;5.596;2024-03-08T13:12:19;16.00;;;13.60;;
19521;SDS011;9905;52.126;5.596;2024-03-08T13:14:46;17.38;;;13.45;;
19521;SDS011;9905;52.126;5.596;2024-03-08T13:17:13;14.45;;;12.30;;
19521;SDS011;9905;52.126;5.596;2024-03-08T13:19:40;15.38;;;13.77;;
19521;SDS011;9905;52.126;5.596;2024-03-08T13:22:09;14.27;;;12.75;;
19521;SDS011;9905;52.126;5.596;2024-03-08T13:24:37;14.55;;;12.68;;
19521;SDS011;9905;52.126;5.596;2024-03-08T13:27:05;13.30;;;11.63;;
19521;SDS011;9905;52.126;5.596;2024-03-08T13:29:44;18.13;;;12.68;;
19521;SDS011;9905;52.126;5.596;2024-03-08T13:32:12;15.82;;;13.13;;
19521;SDS011;9905;52.126;5.596;2024-03-08T13:34:40;16.52;;;12.90;;
19521;SDS011;9905;52.126;5.596;2024-03-08T13:37:09;15.50;;;12.77;;
19521;SDS011;9905;52.126;5.596;2024-03-08T13:39:36;14.57;;;11.95;;
19521;SDS011;9905;52.126;5.596;2024-03-08T13:42:08;15.57;;;13.82;;
19521;SDS011;9905;52.126;5.596;2024-03-08T13:44:37;16.88;;;13.35;;
19521;SDS011;9905;52.126;5.596;2024-03-08T13:47:09;15.27;;;13.27;;
19521;SDS011;9905;52.126;5.596;2024-03-08T13:49:37;14.65;;;13.00;;
19521;SDS011;9905;52.126;5.596;2024-03-08T13:52:03;16.73;;;13.05;;
19521;SDS011;9905;52.126;5.596;2024-03-08T13:54:34;15.98;;;13.65;;
19521;SDS011;9905;52.126;5.596;2024-03-08T13:57:01;16.08;;;12.52;;
19521;SDS011;9905;52.126;5.596;2024-03-08T13:59:29;13.73;;;12.27;;
19521;SDS011;9905;52.126;5.596;2024-03-08T14:01:58;15.40;;;13.77;;
19521;SDS011;9905;52.126;5.596;2024-03-08T14:04:25;20.48;;;13.80;;
19521;SDS011;9905;52.126;5.596;2024-03-08T14:06:53;14.88;;;12.98;;
19521;SDS011;9905;52.126;5.596;2024-03-08T14:09:22;17.40;;;13.40;;
19521;SDS011;9905;52.126;5.596;2024-03-08T14:11:51;20.92;;;12.85;;
19521;SDS011;9905;52.126;5.596;2024-03-08T14:14:19;15.15;;;13.07;;
19521;SDS011;9905;52.126;5.596;2024-03-08T14:16:48;16.08;;;13.35;;
19521;SDS011;9905;52.126;5.596;2024-03-08T14:19:17;14.63;;;12.90;;
19521;SDS011;9905;52.126;5.596;2024-03-08T14:21:44;16.40;;;12.70;;
19521;SDS011;9905;52.126;5.596;2024-03-08T14:24:12;15.18;;;12.90;;
19521;SDS011;9905;52.126;5.596;2024-03-08T14:26:40;16.48;;;13.65;;
19521;SDS011;9905;52.126;5.596;2024-03-08T14:29:08;15.80;;;12.25;;
19521;SDS011;9905;52.126;5.596;2024-03-08T14:31:36;15.88;;;12.90;;
19521;SDS011;9905;52.126;5.596;2024-03-08T14:34:03;15.05;;;13.45;;
19521;SDS011;9905;52.126;5.596;2024-03-08T14:36:29;15.35;;;13.15;;
19521;SDS011;9905;52.126;5.596;2024-03-08T14:38:56;18.60;;;13.50;;